Everhartville, Pennsylvania
Current Conditions -  °F | °C
As of 6:56 AM on Saturday 25 Oct 2014 (Local Time) from KCXY Reporting Station
Clear Clear  
Wind Chill: 45°   Ceiling: Unl
Heat Index: 45°   Visibility: 10mi
Dew Point: 38°   Wind: 0mph
Humidity: 76%   Direction: NA
Pressure: 29.93"   Gusts: NA
Location:  40.4932°N, 77.217°W
Report Text: KCXY 251056Z 00000KT 10SM CLR 07/03 A2993 RMK AO2 SLP136 T00720033
Loading
Personal Weather Stations






























Interactive Weather Map
Tropical Storm Tracking
New forecast layout! Learn more

10-Day Weather Forecast

Advertisements
Track Severe Weather on mobile